createdAt,value
2019-05-07T00:00:54.910Z,15.73
2019-05-07T00:03:25.885Z,15.68
2019-05-07T00:05:56.742Z,15.66
2019-05-07T00:08:27.803Z,15.69
2019-05-07T00:11:02.110Z,15.68
2019-05-07T00:13:33.332Z,15.83
2019-05-07T00:16:04.239Z,15.77
2019-05-07T00:18:35.316Z,15.70
2019-05-07T00:21:06.278Z,15.64
2019-05-07T00:23:37.343Z,15.66
2019-05-07T00:26:08.294Z,15.68
2019-05-07T00:28:39.150Z,15.67
2019-05-07T00:31:12.267Z,15.69
2019-05-07T00:33:43.404Z,15.73
2019-05-07T00:36:18.468Z,15.83
2019-05-07T00:38:53.501Z,15.78
2019-05-07T00:41:25.909Z,15.79
2019-05-07T00:43:58.895Z,15.79
2019-05-07T00:46:32.167Z,15.66
2019-05-07T00:49:02.873Z,15.81
2019-05-07T00:51:34.653Z,15.72
2019-05-07T00:54:06.259Z,15.63
2019-05-07T00:56:36.754Z,15.66
2019-05-07T00:59:07.731Z,15.58
2019-05-07T01:01:38.791Z,15.56
2019-05-07T01:04:11.885Z,15.53
2019-05-07T01:06:42.431Z,15.48
2019-05-07T01:09:13.609Z,15.50
2019-05-07T01:11:44.449Z,15.46
2019-05-07T01:14:15.526Z,15.48
2019-05-07T01:16:46.486Z,15.50
2019-05-07T01:19:17.548Z,15.45
2019-05-07T01:21:48.504Z,15.35
2019-05-07T01:24:19.359Z,15.29
2019-05-07T01:26:50.301Z,15.30
2019-05-07T01:29:22.573Z,15.39
2019-05-07T01:31:55.100Z,15.32
2019-05-07T01:34:43.733Z,15.33
2019-05-07T01:37:14.814Z,15.28
2019-05-07T01:39:45.651Z,15.29
2019-05-07T01:42:16.728Z,15.24
2019-05-07T01:44:47.564Z,15.28
2019-05-07T01:47:18.441Z,15.42
2019-05-07T01:49:49.502Z,15.48
2019-05-07T01:52:22.533Z,15.50
2019-05-07T01:54:52.850Z,15.49
2019-05-07T01:57:23.807Z,15.47
2019-05-07T01:59:54.648Z,15.64
2019-05-07T02:02:27.258Z,15.68
2019-05-07T02:05:15.909Z,15.63
2019-05-07T02:07:52.147Z,15.68
2019-05-07T02:10:24.492Z,15.78
2019-05-07T02:12:55.438Z,15.77
2019-05-07T02:15:26.494Z,15.84
2019-05-07T02:17:57.455Z,15.71
2019-05-07T02:20:28.309Z,15.68
2019-05-07T02:22:59.368Z,15.75
2019-05-07T02:25:32.528Z,15.85
2019-05-07T02:28:02.704Z,15.87
2019-05-07T02:30:35.057Z,15.90
2019-05-07T02:33:06.070Z,15.88
2019-05-07T02:35:37.153Z,15.86
2019-05-07T02:38:13.839Z,15.82
2019-05-07T02:40:46.186Z,15.75
2019-05-07T02:43:17.268Z,15.86
2019-05-07T02:45:49.759Z,15.94
2019-05-07T02:48:25.510Z,15.81
2019-05-07T02:50:58.018Z,15.87
2019-05-07T02:53:43.183Z,15.71
2019-05-07T02:56:14.130Z,15.68
2019-05-07T02:58:45.088Z,15.69
2019-05-07T03:01:16.073Z,15.75
2019-05-07T03:03:47.023Z,15.78
2019-05-07T03:06:18.087Z,15.82
2019-05-07T03:08:48.927Z,15.84
2019-05-07T03:11:22.763Z,15.89
2019-05-07T03:13:53.843Z,15.94
2019-05-07T03:16:38.717Z,15.94
2019-05-07T03:18:56.968Z,16.05
2019-05-07T03:21:29.563Z,16.03
2019-05-07T03:24:13.798Z,16.02
2019-05-07T03:26:47.147Z,16.21
2019-05-07T03:29:19.604Z,16.30
2019-05-07T03:31:58.147Z,16.33
2019-05-07T03:34:36.092Z,16.26
2019-05-07T03:37:06.071Z,16.40
2019-05-07T03:39:36.957Z,16.41
2019-05-07T03:42:07.923Z,16.44
2019-05-07T03:44:40.411Z,16.59
2019-05-07T03:47:25.391Z,16.66
2019-05-07T03:49:56.333Z,16.65
2019-05-07T03:52:27.393Z,16.69
2019-05-07T03:54:58.237Z,16.69
2019-05-07T03:57:28.986Z,16.71
2019-05-07T03:59:59.945Z,16.77
2019-05-07T04:02:33.176Z,16.79
2019-05-07T04:05:04.359Z,16.78
2019-05-07T04:07:35.396Z,16.83
2019-05-07T04:10:10.253Z,16.89
2019-05-07T04:12:40.288Z,16.80
2019-05-07T04:15:14.590Z,16.91
2019-05-07T04:17:43.712Z,17.05
2019-05-07T04:20:14.884Z,17.17
2019-05-07T04:22:45.545Z,17.08
2019-05-07T04:25:23.699Z,17.01
2019-05-07T04:28:03.462Z,16.97
2019-05-07T04:30:34.061Z,17.01
2019-05-07T04:33:06.458Z,17.11
2019-05-07T04:35:43.467Z,17.15
2019-05-07T04:38:17.169Z,17.21
2019-05-07T04:40:49.151Z,17.22
2019-05-07T04:43:23.055Z,17.25
2019-05-07T04:45:53.658Z,17.32
2019-05-07T04:48:24.694Z,17.28
2019-05-07T04:50:57.162Z,17.49
2019-05-07T04:53:28.236Z,17.58
2019-05-07T04:55:58.784Z,17.82
2019-05-07T04:58:29.728Z,17.88
2019-05-07T05:01:03.209Z,17.98
2019-05-07T05:03:34.738Z,18.24
2019-05-07T05:06:05.793Z,18.05
2019-05-07T05:08:36.854Z,18.05
2019-05-07T05:11:07.705Z,18.01
2019-05-07T05:13:38.665Z,18.01
2019-05-07T05:16:13.806Z,18.07
2019-05-07T05:18:44.453Z,18.33
2019-05-07T05:21:16.858Z,18.29
2019-05-07T05:23:49.453Z,18.23
2019-05-07T05:26:21.881Z,18.15
2019-05-07T05:28:52.806Z,18.14
2019-05-07T05:31:23.640Z,18.07
2019-05-07T05:33:54.616Z,17.97
2019-05-07T05:36:25.679Z,17.99
2019-05-07T05:38:56.617Z,17.90
2019-05-07T05:41:29.230Z,17.88
2019-05-07T05:44:02.405Z,17.96
2019-05-07T05:46:34.418Z,18.20
2019-05-07T05:49:05.073Z,18.46
2019-05-07T05:51:46.879Z,18.53
2019-05-07T05:54:25.294Z,18.87
2019-05-07T05:57:14.153Z,19.26
2019-05-07T05:59:55.704Z,19.63
2019-05-07T06:02:43.940Z,19.86
2019-05-07T06:05:34.453Z,19.98
2019-05-07T06:08:20.806Z,20.03
2019-05-07T06:10:52.971Z,20.14
2019-05-07T06:13:32.355Z,20.35
2019-05-07T06:16:07.670Z,20.86
2019-05-07T06:18:49.258Z,21.53
2019-05-07T06:21:37.593Z,22.01
2019-05-07T06:24:13.481Z,21.28
2019-05-07T06:26:44.026Z,21.68
2019-05-07T06:29:14.990Z,21.74
2019-05-07T06:31:47.582Z,22.45
2019-05-07T06:34:18.540Z,22.41
2019-05-07T06:36:49.376Z,22.80
2019-05-07T06:39:22.219Z,22.91
2019-05-07T06:42:13.097Z,22.40
2019-05-07T06:44:44.465Z,22.99
2019-05-07T06:47:15.425Z,22.86
2019-05-07T06:49:46.559Z,22.90
2019-05-07T06:52:17.184Z,23.06
2019-05-07T06:54:48.093Z,23.59
2019-05-07T06:57:22.216Z,23.52
2019-05-07T06:59:54.699Z,23.91
2019-05-07T07:02:37.845Z,23.38
2019-05-07T07:05:18.125Z,24.03
2019-05-07T07:07:57.354Z,23.89
2019-05-07T07:10:32.087Z,24.00
2019-05-07T07:13:02.519Z,23.99
2019-05-07T07:15:33.506Z,24.54
2019-05-07T07:18:04.441Z,24.71
2019-05-07T07:20:35.300Z,24.57
2019-05-07T07:23:06.276Z,24.81
2019-05-07T07:25:36.913Z,24.55
2019-05-07T07:28:07.989Z,24.43
2019-05-07T07:30:56.643Z,24.80
2019-05-07T07:33:29.136Z,24.85
2019-05-07T07:36:02.340Z,24.67
2019-05-07T07:38:38.805Z,24.79
2019-05-07T07:41:24.387Z,24.68
2019-05-07T07:43:55.246Z,24.48
2019-05-07T07:53:25.243Z,25.36
2019-05-07T07:56:14.203Z,25.66
2019-05-07T07:58:59.072Z,25.73
2019-05-07T08:01:43.511Z,25.73
2019-05-07T08:04:15.082Z,25.27
2019-05-07T08:06:46.144Z,25.08
2019-05-07T08:09:17.015Z,25.39
2019-05-07T08:11:48.077Z,25.39
2019-05-07T08:14:19.035Z,25.37
2019-05-07T08:16:50.100Z,25.83
2019-05-07T08:19:24.420Z,25.87
2019-05-07T08:21:53.750Z,25.74
2019-05-07T08:24:24.813Z,25.52
2019-05-07T08:26:55.976Z,25.69
2019-05-07T08:29:26.612Z,25.20
2019-05-07T08:32:17.222Z,25.39
2019-05-07T08:34:52.031Z,25.53
2019-05-07T08:37:24.333Z,25.82
2019-05-07T08:39:54.410Z,24.46
2019-05-07T08:42:26.273Z,24.82
2019-05-07T08:45:02.941Z,24.82
2019-05-07T08:47:35.329Z,24.35
2019-05-07T08:50:07.649Z,24.45
2019-05-07T08:52:38.474Z,24.71
2019-05-07T08:55:09.552Z,25.69
2019-05-07T08:57:42.070Z,24.59
2019-05-07T09:00:14.835Z,24.59
2019-05-07T09:02:45.699Z,24.81
2019-05-07T09:05:16.864Z,24.74
2019-05-07T09:07:47.821Z,24.95
2019-05-07T09:10:18.885Z,25.21
2019-05-07T09:12:49.842Z,24.65
2019-05-07T09:15:22.661Z,24.65
2019-05-07T09:17:53.394Z,25.44
2019-05-07T09:20:24.335Z,25.93
2019-05-07T09:22:55.313Z,26.43
2019-05-07T09:25:26.371Z,26.83
2019-05-07T09:27:57.332Z,26.05
2019-05-07T09:30:46.172Z,26.50
2019-05-07T09:33:18.766Z,26.13
2019-05-07T09:35:52.832Z,27.18
2019-05-07T09:38:23.752Z,26.79
2019-05-07T09:40:57.035Z,27.51
2019-05-07T09:43:27.027Z,27.80
2019-05-07T09:45:58.054Z,26.61
2019-05-07T09:48:29.220Z,27.42
2019-05-07T09:51:02.200Z,27.20
2019-05-07T09:53:32.587Z,28.26
2019-05-07T09:56:03.422Z,28.50
2019-05-07T09:58:38.503Z,28.70
2019-05-07T10:01:06.792Z,28.77
2019-05-07T10:03:37.645Z,27.42
2019-05-07T10:06:08.811Z,27.28
2019-05-07T10:08:41.901Z,27.83
2019-05-07T10:11:13.697Z,27.70
2019-05-07T10:13:46.372Z,27.71
2019-05-07T10:16:18.883Z,27.35
2019-05-07T10:18:52.035Z,27.22
2019-05-07T10:21:22.729Z,28.23
2019-05-07T10:23:53.683Z,28.25
2019-05-07T10:26:24.658Z,27.75
2019-05-07T10:28:56.742Z,28.10
2019-05-07T10:31:27.272Z,28.16
2019-05-07T10:33:59.397Z,28.20
2019-05-07T10:36:32.018Z,28.78
2019-05-07T10:39:03.030Z,28.27
2019-05-07T10:41:33.886Z,28.33
2019-05-07T10:44:05.700Z,27.76
2019-05-07T10:46:43.995Z,28.73
2019-05-07T10:49:22.704Z,28.87
2019-05-07T10:51:53.989Z,29.25
2019-05-07T10:54:24.942Z,29.08
2019-05-07T10:56:55.798Z,28.84
2019-05-07T10:59:26.855Z,28.38
2019-05-07T11:01:59.348Z,27.91
2019-05-07T11:04:40.129Z,28.52
2019-05-07T11:07:02.989Z,28.67
2019-05-07T11:09:34.070Z,28.37
2019-05-07T11:12:05.231Z,29.10
2019-05-07T11:14:36.170Z,28.37
2019-05-07T11:17:08.764Z,28.58
2019-05-07T11:19:41.585Z,28.14
2019-05-07T11:22:12.134Z,27.84
2019-05-07T11:24:42.794Z,27.50
2019-05-07T11:27:13.740Z,27.38
2019-05-07T11:29:44.681Z,27.22
2019-05-07T11:32:15.657Z,27.41
2019-05-07T11:34:46.717Z,27.70
2019-05-07T11:37:17.711Z,27.77
2019-05-07T11:39:48.738Z,27.80
2019-05-07T11:42:21.964Z,27.67
2019-05-07T11:44:56.951Z,28.08
2019-05-07T11:47:31.730Z,27.81
2019-05-07T11:50:18.853Z,28.08
2019-05-07T11:52:57.263Z,27.52
2019-05-07T11:55:28.134Z,28.02
2019-05-07T11:57:58.999Z,28.06
2019-05-07T12:00:32.292Z,27.70
2019-05-07T12:03:03.464Z,27.47
2019-05-07T12:05:34.200Z,26.85
2019-05-07T12:08:05.570Z,26.41
2019-05-07T12:10:36.650Z,26.23
2019-05-07T12:13:07.075Z,26.01
2019-05-07T12:15:38.570Z,25.81
2019-05-07T12:18:09.426Z,25.58
2019-05-07T12:20:40.367Z,25.50
2019-05-07T12:23:12.144Z,25.47
2019-05-07T12:25:43.119Z,25.84
2019-05-07T12:28:14.566Z,26.52
2019-05-07T12:30:47.076Z,26.95
2019-05-07T12:33:22.434Z,26.90
2019-05-07T12:35:53.277Z,26.74
2019-05-07T12:38:24.144Z,26.78
2019-05-07T12:40:55.207Z,26.41
2019-05-07T12:43:26.163Z,26.42
2019-05-07T12:45:56.799Z,26.22
2019-05-07T12:48:27.673Z,26.08
2019-05-07T12:50:58.618Z,25.95
2019-05-07T12:53:43.480Z,26.26
2019-05-07T12:56:14.362Z,27.13
2019-05-07T12:58:45.414Z,27.39
2019-05-07T13:01:23.737Z,27.68
2019-05-07T13:03:59.504Z,27.66
2019-05-07T13:06:32.454Z,27.31
2019-05-07T13:09:02.647Z,27.86
2019-05-07T13:11:33.589Z,27.93
2019-05-07T13:14:04.873Z,27.79
2019-05-07T13:16:35.932Z,28.21
2019-05-07T13:19:06.890Z,27.82
2019-05-07T13:21:47.387Z,27.60
2019-05-07T13:24:11.754Z,27.33
2019-05-07T13:26:42.800Z,26.56
2019-05-07T13:29:13.689Z,26.26
2019-05-07T13:31:45.121Z,26.20
2019-05-07T13:34:15.869Z,26.16
2019-05-07T13:36:48.900Z,26.55
2019-05-07T13:39:23.462Z,26.78
2019-05-07T13:41:56.237Z,27.35
2019-05-07T13:44:34.783Z,27.12
2019-05-07T13:47:23.946Z,27.32
2019-05-07T13:49:55.324Z,26.46
2019-05-07T13:52:26.257Z,26.12
2019-05-07T13:54:57.007Z,26.26
2019-05-07T13:57:27.661Z,25.81
2019-05-07T13:59:58.636Z,25.32
2019-05-07T14:02:31.755Z,25.25
2019-05-07T14:05:02.886Z,25.13
2019-05-07T14:07:35.379Z,25.32
2019-05-07T14:10:06.751Z,25.47
2019-05-07T14:12:37.295Z,25.39
2019-05-07T14:15:08.578Z,25.83
2019-05-07T14:17:40.052Z,26.11
2019-05-07T14:20:12.972Z,26.24
2019-05-07T14:22:43.279Z,26.06
2019-05-07T14:25:14.357Z,25.59
2019-05-07T14:27:45.314Z,25.02
2019-05-07T14:30:17.093Z,24.84
2019-05-07T14:32:49.668Z,24.61
2019-05-07T14:35:22.686Z,24.39
2019-05-07T14:37:58.050Z,24.06
2019-05-07T14:40:29.007Z,24.05
2019-05-07T14:43:03.384Z,23.76
2019-05-07T14:45:34.195Z,23.42
2019-05-07T14:48:04.930Z,23.30
2019-05-07T14:50:36.111Z,23.00
2019-05-07T14:53:07.069Z,22.96
2019-05-07T14:55:37.804Z,22.89
2019-05-07T14:58:08.884Z,22.67
2019-05-07T15:00:39.926Z,22.62
2019-05-07T15:03:12.458Z,22.49
2019-05-07T15:05:43.394Z,22.43
2019-05-07T15:08:14.662Z,22.49
2019-05-07T15:10:45.720Z,22.68
2019-05-07T15:13:16.576Z,22.49
2019-05-07T15:15:47.827Z,22.37
2019-05-07T15:18:23.692Z,22.33
2019-05-07T15:20:54.670Z,22.38
2019-05-07T15:23:30.434Z,22.42
2019-05-07T15:26:04.277Z,22.63
2019-05-07T15:28:34.602Z,22.92
2019-05-07T15:31:07.197Z,22.86
2019-05-07T15:33:38.052Z,22.63
2019-05-07T15:36:09.122Z,22.13
2019-05-07T15:38:40.177Z,21.61
2019-05-07T15:41:11.236Z,21.07
2019-05-07T15:43:45.798Z,20.65
2019-05-07T15:46:14.482Z,20.37
2019-05-07T15:48:46.565Z,20.09
2019-05-07T15:51:17.509Z,19.96
2019-05-07T15:53:52.183Z,19.84
2019-05-07T15:56:22.695Z,19.72
2019-05-07T15:58:53.571Z,19.73
2019-05-07T16:01:24.628Z,19.62
2019-05-07T16:03:55.470Z,19.48
2019-05-07T16:06:27.469Z,19.51
2019-05-07T16:09:02.430Z,19.45
2019-05-07T16:11:32.577Z,19.42
2019-05-07T16:14:05.050Z,19.21
2019-05-07T16:16:37.743Z,18.97
2019-05-07T16:19:12.218Z,18.75
2019-05-07T16:21:50.078Z,18.57
2019-05-07T16:24:22.528Z,18.31
2019-05-07T16:26:53.324Z,18.23
2019-05-07T16:29:24.401Z,18.18
2019-05-07T16:31:55.342Z,18.07
2019-05-07T16:34:26.215Z,17.95
2019-05-07T16:36:57.176Z,17.83
2019-05-07T16:39:28.133Z,17.73
2019-05-07T16:41:59.195Z,17.79
2019-05-07T16:44:30.160Z,17.78
2019-05-07T16:47:02.663Z,17.72
2019-05-07T16:49:34.623Z,17.67
2019-05-07T16:52:05.583Z,17.62
2019-05-07T16:54:36.218Z,17.58
2019-05-07T16:57:24.971Z,17.38
2019-05-07T16:59:56.251Z,17.37
2019-05-07T17:02:33.852Z,17.28
2019-05-07T17:05:07.583Z,17.21
2019-05-07T17:07:42.178Z,17.15
2019-05-07T17:10:12.804Z,17.11
2019-05-07T17:12:45.468Z,17.06
2019-05-07T17:15:17.170Z,16.97
2019-05-07T17:17:49.328Z,16.95
2019-05-07T17:20:21.984Z,16.95
2019-05-07T17:22:52.782Z,16.94
2019-05-07T17:25:38.985Z,16.94
2019-05-07T17:28:12.427Z,16.93
2019-05-07T17:30:42.615Z,16.91
2019-05-07T17:33:13.695Z,16.86
2019-05-07T17:35:46.200Z,16.85
2019-05-07T17:38:16.940Z,16.92
2019-05-07T17:40:47.674Z,16.85
2019-05-07T17:43:18.753Z,16.81
2019-05-07T17:45:49.593Z,16.80
2019-05-07T17:48:23.038Z,16.76
2019-05-07T17:50:54.884Z,16.73
2019-05-07T17:53:25.948Z,16.72
2019-05-07T17:55:56.801Z,16.76
2019-05-07T17:58:27.675Z,16.79
2019-05-07T18:01:01.790Z,16.83
2019-05-07T18:03:33.672Z,16.82
2019-05-07T18:06:05.255Z,16.83
2019-05-07T18:08:35.787Z,16.84
2019-05-07T18:11:20.322Z,16.80
2019-05-07T18:13:39.343Z,16.76
2019-05-07T18:16:12.203Z,16.82
2019-05-07T18:18:43.341Z,16.76
2019-05-07T18:21:13.973Z,16.79
2019-05-07T18:23:44.916Z,16.69
2019-05-07T18:26:27.203Z,16.73
2019-05-07T18:28:48.688Z,16.78
2019-05-07T18:31:22.188Z,16.72
2019-05-07T18:33:57.554Z,16.64
2019-05-07T18:36:28.503Z,16.68
2019-05-07T18:39:01.562Z,16.62
2019-05-07T18:41:32.657Z,16.60
2019-05-07T18:44:12.326Z,16.52
2019-05-07T18:46:36.460Z,16.48
2019-05-07T18:49:07.504Z,16.44
2019-05-07T18:51:38.343Z,16.38
2019-05-07T18:54:09.318Z,16.35
2019-05-07T18:56:42.055Z,16.36
2019-05-07T18:59:13.568Z,16.27
2019-05-07T19:01:45.066Z,16.28
2019-05-07T19:04:15.810Z,16.18
2019-05-07T19:06:46.773Z,16.25
2019-05-07T19:09:17.607Z,16.22
2019-05-07T19:11:52.231Z,16.16
2019-05-07T19:14:22.876Z,16.11
2019-05-07T19:16:53.759Z,16.06
2019-05-07T19:19:25.041Z,16.06
2019-05-07T19:21:55.897Z,15.99
2019-05-07T19:24:26.941Z,15.94
2019-05-07T19:26:57.795Z,15.94
2019-05-07T19:29:28.857Z,15.94
2019-05-07T19:31:59.711Z,15.89
2019-05-07T19:34:32.499Z,15.87
2019-05-07T19:37:03.061Z,15.83
2019-05-07T19:39:34.036Z,15.70
2019-05-07T19:42:04.874Z,15.60
2019-05-07T19:44:35.951Z,15.58
2019-05-07T19:47:06.792Z,15.54
2019-05-07T19:49:37.872Z,15.46
2019-05-07T19:52:08.826Z,15.35
2019-05-07T19:54:40.167Z,15.24
2019-05-07T19:57:12.466Z,15.18
2019-05-07T19:59:43.445Z,15.13
2019-05-07T20:02:16.019Z,15.06
2019-05-07T20:04:46.874Z,15.02
2019-05-07T20:07:17.750Z,15.01
2019-05-07T20:09:48.810Z,14.97
2019-05-07T20:12:19.766Z,14.90
2019-05-07T20:14:51.721Z,14.88
2019-05-07T20:17:22.484Z,14.85
2019-05-07T20:19:53.442Z,14.79
2019-05-07T20:22:24.315Z,14.80
2019-05-07T20:24:55.071Z,14.78
2019-05-07T20:27:25.910Z,14.75
2019-05-07T20:29:56.781Z,14.76
2019-05-07T20:32:27.844Z,14.75
2019-05-07T20:34:58.802Z,14.71
2019-05-07T20:37:29.861Z,14.70
2019-05-07T20:40:03.028Z,14.66
2019-05-07T20:42:33.193Z,14.58
2019-05-07T20:45:05.167Z,14.46
2019-05-07T20:47:35.742Z,14.36
2019-05-07T20:50:07.971Z,14.36
2019-05-07T20:52:41.692Z,14.39
2019-05-07T20:55:27.932Z,14.42
2019-05-07T20:57:51.662Z,14.52
2019-05-07T21:00:27.412Z,14.40
2019-05-07T21:03:16.265Z,14.25
2019-05-07T21:05:48.349Z,14.17
2019-05-07T21:08:19.102Z,14.19
2019-05-07T21:10:50.166Z,14.27
2019-05-07T21:13:28.526Z,14.22
2019-05-07T21:15:53.519Z,14.16
2019-05-07T21:18:24.490Z,14.13
2019-05-07T21:20:55.325Z,14.13
2019-05-07T21:23:26.387Z,14.11
2019-05-07T21:25:57.360Z,14.07
2019-05-07T21:28:28.405Z,14.10
2019-05-07T21:30:59.368Z,14.23
2019-05-07T21:33:32.209Z,14.20
2019-05-07T21:36:03.120Z,14.22
2019-05-07T21:38:34.180Z,14.13
2019-05-07T21:41:05.124Z,14.10
2019-05-07T21:43:35.998Z,14.13
2019-05-07T21:46:07.039Z,14.10
2019-05-07T21:48:37.898Z,14.12
2019-05-07T21:51:08.978Z,14.22
2019-05-07T21:53:43.055Z,14.20
2019-05-07T21:56:24.885Z,14.15
2019-05-07T21:59:06.279Z,14.12
2019-05-07T22:01:48.093Z,14.15
2019-05-07T22:04:18.932Z,14.14
2019-05-07T22:06:52.170Z,14.11
2019-05-07T22:09:22.470Z,14.13
2019-05-07T22:11:53.776Z,14.22
2019-05-07T22:14:24.605Z,14.31
2019-05-07T22:16:55.770Z,14.32
2019-05-07T22:19:26.746Z,14.28
2019-05-07T22:21:57.789Z,14.21
2019-05-07T22:24:28.766Z,14.15
2019-05-07T22:27:01.712Z,14.13
2019-05-07T22:29:31.893Z,14.12
2019-05-07T22:32:07.161Z,14.04
2019-05-07T22:34:54.670Z,14.03
2019-05-07T22:37:25.647Z,14.03
2019-05-07T22:39:56.607Z,14.02
2019-05-07T22:42:27.488Z,14.01
2019-05-07T22:44:58.401Z,13.99
2019-05-07T22:47:29.481Z,13.99
2019-05-07T22:50:02.584Z,14.07
2019-05-07T22:52:32.830Z,14.17
2019-05-07T22:55:03.991Z,14.15
2019-05-07T22:57:36.486Z,14.19
2019-05-07T23:00:12.228Z,14.31
2019-05-07T23:02:42.870Z,14.36
2019-05-07T23:05:13.963Z,14.40
2019-05-07T23:07:45.012Z,14.41
2019-05-07T23:10:16.066Z,14.40
2019-05-07T23:12:47.145Z,14.57
2019-05-07T23:15:18.310Z,14.64
2019-05-07T23:17:49.350Z,14.70
2019-05-07T23:20:24.166Z,14.80
2019-05-07T23:22:52.616Z,14.87
2019-05-07T23:25:24.574Z,14.91
2019-05-07T23:27:55.450Z,14.97
2019-05-07T23:30:26.291Z,14.99
2019-05-07T23:32:57.145Z,14.94
2019-05-07T23:35:28.324Z,15.08
2019-05-07T23:37:59.287Z,15.11
2019-05-07T23:40:34.850Z,15.12
2019-05-07T23:43:07.321Z,15.09
2019-05-07T23:45:37.890Z,15.12
2019-05-07T23:48:08.948Z,15.19
2019-05-07T23:50:41.864Z,15.27
2019-05-07T23:53:12.907Z,15.26
2019-05-07T23:55:43.971Z,15.27
2019-05-07T23:58:15.012Z,15.29
